createdAt,value
2023-01-30T00:00:28.922Z,-1.31
2023-01-30T00:03:01.922Z,-1.34
2023-01-30T00:05:34.705Z,-1.32
2023-01-30T00:08:07.714Z,-1.29
2023-01-30T00:10:40.629Z,-1.45
2023-01-30T00:13:16.510Z,-1.40
2023-01-30T00:15:49.715Z,-1.35
2023-01-30T00:18:22.589Z,-1.28
2023-01-30T00:20:59.200Z,-1.04
2023-01-30T00:23:34.276Z,-1.18
2023-01-30T00:26:08.169Z,-1.15
2023-01-30T00:28:42.402Z,-0.99
2023-01-30T00:31:15.367Z,-1.00
2023-01-30T00:33:48.194Z,-0.90
2023-01-30T00:36:20.976Z,-0.84
2023-01-30T00:38:53.697Z,-0.93
2023-01-30T00:41:47.221Z,-0.60
2023-01-30T00:44:38.775Z,-0.78
2023-01-30T00:47:12.062Z,-0.56
2023-01-30T00:49:45.039Z,-0.49
2023-01-30T00:52:17.836Z,-0.38
2023-01-30T00:54:51.467Z,-0.33
2023-01-30T00:57:24.532Z,-0.40
2023-01-30T00:59:58.680Z,-0.40
2023-01-30T01:02:31.463Z,-0.32
2023-01-30T01:05:04.941Z,-0.49
2023-01-30T01:07:37.779Z,-0.35
2023-01-30T01:10:16.250Z,-0.40
2023-01-30T01:12:52.288Z,-0.37
2023-01-30T01:15:27.653Z,-0.34
2023-01-30T01:18:00.541Z,-0.31
2023-01-30T01:20:33.340Z,-0.37
2023-01-30T01:23:06.125Z,-0.43
2023-01-30T01:25:39.114Z,-0.54
2023-01-30T01:28:12.588Z,-0.37
2023-01-30T01:30:46.694Z,-0.39
2023-01-30T01:33:19.569Z,-0.17
2023-01-30T01:35:56.141Z,-0.13
2023-01-30T01:38:28.971Z,-0.15
2023-01-30T01:41:05.960Z,-0.38
2023-01-30T01:44:02.249Z,-0.42
2023-01-30T01:46:40.047Z,-0.11
2023-01-30T01:49:16.724Z,-0.28
2023-01-30T01:51:55.791Z,-0.26
2023-01-30T01:54:35.117Z,-0.17
2023-01-30T01:57:13.707Z,-0.31
2023-01-30T01:59:52.946Z,-0.29
2023-01-30T02:02:27.709Z,-0.33
2023-01-30T02:05:06.444Z,-0.20
2023-01-30T02:07:46.218Z,-0.18
2023-01-30T02:10:21.643Z,-0.18
2023-01-30T02:12:54.573Z,-0.29
2023-01-30T02:15:27.924Z,-0.09
2023-01-30T02:18:02.967Z,-0.06
2023-01-30T02:20:57.739Z,-0.08
2023-01-30T02:24:17.726Z,-0.10
2023-01-30T02:27:14.628Z,0.04
2023-01-30T02:30:17.016Z,0.05
2023-01-30T02:33:03.307Z,0.16
2023-01-30T02:35:47.443Z,0.00
2023-01-30T02:38:34.733Z,0.02
2023-01-30T02:41:22.819Z,0.10
2023-01-30T02:44:04.329Z,0.00
2023-01-30T02:46:46.711Z,0.08
2023-01-30T02:49:27.540Z,0.11
2023-01-30T02:52:02.368Z,0.20
2023-01-30T02:54:35.251Z,0.07
2023-01-30T02:57:20.724Z,0.19
2023-01-30T02:59:57.898Z,0.37
2023-01-30T03:03:07.319Z,0.43
2023-01-30T03:05:54.627Z,0.26
2023-01-30T03:08:35.655Z,0.25
2023-01-30T03:11:09.400Z,0.22
2023-01-30T03:13:50.297Z,0.18
2023-01-30T03:16:29.522Z,0.30
2023-01-30T03:19:03.684Z,0.26
2023-01-30T03:21:44.534Z,0.34
2023-01-30T03:24:18.589Z,0.30
2023-01-30T03:26:58.099Z,0.40
2023-01-30T03:29:30.950Z,0.47
2023-01-30T03:32:03.892Z,0.51
2023-01-30T03:34:36.822Z,0.44
2023-01-30T03:37:11.858Z,0.59
2023-01-30T03:39:44.922Z,0.69
2023-01-30T03:42:21.210Z,0.43
2023-01-30T03:44:54.089Z,0.45
2023-01-30T03:47:27.185Z,0.44
2023-01-30T03:50:01.275Z,0.51
2023-01-30T03:52:37.478Z,0.53
2023-01-30T03:55:15.724Z,0.55
2023-01-30T03:57:49.167Z,0.54
2023-01-30T04:00:24.779Z,0.35
2023-01-30T04:02:59.097Z,0.45
2023-01-30T04:05:32.229Z,0.61
2023-01-30T04:08:11.572Z,0.39
2023-01-30T04:10:44.502Z,0.38
2023-01-30T04:13:17.332Z,0.46
2023-01-30T04:15:50.275Z,0.48
2023-01-30T04:18:52.179Z,0.31
2023-01-30T04:21:26.759Z,0.46
2023-01-30T04:24:00.975Z,0.47
2023-01-30T04:26:33.905Z,0.33
2023-01-30T04:29:07.969Z,0.44
2023-01-30T04:31:42.353Z,0.55
2023-01-30T04:34:24.771Z,0.57
2023-01-30T04:36:58.569Z,0.53
2023-01-30T04:39:32.710Z,0.56
2023-01-30T04:42:06.164Z,0.54
2023-01-30T04:44:46.287Z,0.54
2023-01-30T04:47:24.305Z,0.55
2023-01-30T04:49:57.148Z,0.57
2023-01-30T04:52:30.190Z,0.62
2023-01-30T04:55:06.322Z,0.59
2023-01-30T04:57:39.240Z,0.45
2023-01-30T05:00:13.144Z,0.51
2023-01-30T05:02:53.168Z,0.75
2023-01-30T05:05:26.810Z,0.60
2023-01-30T05:07:59.949Z,0.61
2023-01-30T05:10:34.154Z,0.63
2023-01-30T05:13:07.856Z,0.53
2023-01-30T05:15:41.238Z,0.63
2023-01-30T05:18:14.380Z,0.49
2023-01-30T05:20:47.295Z,0.45
2023-01-30T05:23:20.220Z,0.48
2023-01-30T05:25:54.856Z,0.45
2023-01-30T05:28:27.815Z,0.35
2023-01-30T05:31:02.972Z,0.66
2023-01-30T05:33:36.074Z,0.62
2023-01-30T05:36:14.878Z,0.56
2023-01-30T05:38:47.752Z,0.63
2023-01-30T05:41:21.947Z,0.58
2023-01-30T05:43:54.835Z,0.44
2023-01-30T05:46:27.726Z,0.55
2023-01-30T05:49:00.712Z,0.43
2023-01-30T05:51:34.120Z,0.47
2023-01-30T05:54:07.191Z,0.48
2023-01-30T05:56:41.414Z,0.43
2023-01-30T05:59:15.381Z,0.43
2023-01-30T06:01:48.321Z,0.45
2023-01-30T06:04:21.398Z,0.36
2023-01-30T06:06:54.306Z,0.37
2023-01-30T06:09:27.235Z,0.35
2023-01-30T06:12:01.345Z,0.22
2023-01-30T06:14:34.086Z,0.24
2023-01-30T06:17:07.070Z,0.25
2023-01-30T06:19:39.948Z,0.31
2023-01-30T06:22:12.727Z,0.27
2023-01-30T06:24:45.598Z,0.32
2023-01-30T06:27:19.863Z,0.28
2023-01-30T06:29:52.702Z,0.33
2023-01-30T06:32:25.535Z,0.29
2023-01-30T06:34:58.360Z,0.44
2023-01-30T06:37:31.201Z,0.35
2023-01-30T06:40:04.247Z,0.34
2023-01-30T06:42:38.389Z,0.34
2023-01-30T06:45:12.236Z,0.43
2023-01-30T06:47:48.783Z,0.37
2023-01-30T06:50:23.129Z,0.30
2023-01-30T06:52:56.244Z,0.31
2023-01-30T06:55:29.410Z,0.37
2023-01-30T06:58:05.566Z,0.31
2023-01-30T07:00:40.553Z,0.31
2023-01-30T07:03:14.847Z,0.35
2023-01-30T07:05:49.259Z,0.27
2023-01-30T07:08:23.991Z,0.28
2023-01-30T07:10:57.204Z,0.26
2023-01-30T07:13:31.316Z,0.40
2023-01-30T07:16:04.113Z,0.39
2023-01-30T07:18:36.960Z,0.40
2023-01-30T07:21:09.766Z,0.44
2023-01-30T07:23:43.786Z,0.43
2023-01-30T07:26:16.625Z,0.58
2023-01-30T07:28:50.852Z,0.52
2023-01-30T07:31:23.785Z,0.54
2023-01-30T07:33:56.648Z,0.51
2023-01-30T07:36:29.487Z,0.55
2023-01-30T07:39:02.598Z,0.61
2023-01-30T07:41:35.489Z,0.57
2023-01-30T07:44:09.843Z,0.61
2023-01-30T07:46:42.908Z,0.57
2023-01-30T07:49:15.907Z,0.66
2023-01-30T07:51:48.674Z,0.58
2023-01-30T07:54:21.688Z,0.66
2023-01-30T07:56:54.539Z,0.64
2023-01-30T07:59:28.872Z,0.68
2023-01-30T08:02:01.748Z,0.55
2023-01-30T08:04:34.599Z,0.62
2023-01-30T08:07:07.403Z,0.63
2023-01-30T08:09:40.201Z,0.53
2023-01-30T08:12:13.032Z,0.59
2023-01-30T08:14:47.209Z,0.64
2023-01-30T08:17:19.992Z,0.59
2023-01-30T08:19:52.780Z,0.63
2023-01-30T08:22:25.758Z,0.54
2023-01-30T08:24:58.741Z,0.62
2023-01-30T08:27:31.557Z,0.61
2023-01-30T08:30:06.549Z,0.60
2023-01-30T08:32:39.392Z,0.70
2023-01-30T08:35:12.314Z,0.57
2023-01-30T08:37:45.144Z,0.63
2023-01-30T08:40:18.407Z,0.79
2023-01-30T08:42:51.325Z,0.68
2023-01-30T08:45:25.472Z,0.63
2023-01-30T08:47:59.471Z,0.78
2023-01-30T08:50:33.125Z,0.71
2023-01-30T08:53:06.993Z,0.73
2023-01-30T08:55:39.801Z,0.70
2023-01-30T08:58:12.624Z,0.71
2023-01-30T09:00:47.905Z,0.78
2023-01-30T09:03:21.605Z,0.86
2023-01-30T09:05:56.111Z,0.85
2023-01-30T09:08:29.501Z,0.91
2023-01-30T09:11:03.869Z,0.97
2023-01-30T09:13:36.834Z,1.10
2023-01-30T09:16:11.475Z,0.97
2023-01-30T09:18:45.691Z,0.97
2023-01-30T09:21:18.540Z,1.10
2023-01-30T09:23:51.429Z,1.12
2023-01-30T09:26:24.642Z,1.22
2023-01-30T09:28:57.576Z,1.16
2023-01-30T09:31:31.903Z,1.34
2023-01-30T09:34:04.773Z,1.31
2023-01-30T09:36:39.601Z,1.37
2023-01-30T09:39:12.390Z,1.38
2023-01-30T09:42:12.369Z,1.44
2023-01-30T09:45:00.663Z,1.37
2023-01-30T09:47:43.350Z,1.39
2023-01-30T09:50:33.279Z,1.40
2023-01-30T09:53:15.768Z,1.44
2023-01-30T09:55:49.129Z,1.50
2023-01-30T09:58:25.060Z,1.44
2023-01-30T10:01:07.430Z,1.54
2023-01-30T10:03:55.041Z,1.64
2023-01-30T10:06:28.119Z,1.54
2023-01-30T10:09:09.383Z,1.60
2023-01-30T10:11:55.311Z,1.60
2023-01-30T10:14:49.555Z,1.70
2023-01-30T10:17:32.975Z,1.82
2023-01-30T10:20:26.680Z,1.78
2023-01-30T10:23:14.176Z,1.73
2023-01-30T10:25:49.519Z,1.67
2023-01-30T10:28:26.749Z,1.79
2023-01-30T10:31:06.238Z,1.80
2023-01-30T10:33:45.374Z,1.86
2023-01-30T10:36:24.141Z,1.91
2023-01-30T10:39:01.686Z,1.84
2023-01-30T10:41:39.861Z,1.87
2023-01-30T10:44:15.024Z,1.80
2023-01-30T10:47:07.143Z,1.73
2023-01-30T10:49:43.858Z,1.77
2023-01-30T10:52:33.895Z,1.75
2023-01-30T10:55:22.161Z,1.82
2023-01-30T10:58:13.488Z,1.89
2023-01-30T11:00:55.735Z,1.80
2023-01-30T11:03:37.811Z,1.89
2023-01-30T11:06:16.570Z,1.84
2023-01-30T11:08:51.978Z,1.85
2023-01-30T11:11:28.945Z,1.76
2023-01-30T11:14:07.501Z,1.77
2023-01-30T11:16:45.769Z,1.76
2023-01-30T11:19:22.928Z,1.78
2023-01-30T11:22:01.872Z,1.66
2023-01-30T11:24:41.917Z,1.77
2023-01-30T11:27:20.407Z,1.76
2023-01-30T11:30:06.137Z,1.74
2023-01-30T11:32:39.190Z,1.85
2023-01-30T11:35:27.169Z,1.86
2023-01-30T11:38:14.293Z,1.80
2023-01-30T11:40:48.715Z,1.80
2023-01-30T11:43:27.186Z,1.79
2023-01-30T11:46:01.503Z,1.83
2023-01-30T11:49:14.511Z,1.73
2023-01-30T11:51:30.785Z,1.77
2023-01-30T11:54:06.172Z,1.99
2023-01-30T11:56:47.359Z,1.80
2023-01-30T11:59:27.291Z,1.72
2023-01-30T12:02:05.631Z,1.73
2023-01-30T12:04:38.847Z,1.75
2023-01-30T12:07:20.579Z,1.82
2023-01-30T12:09:55.026Z,1.88
2023-01-30T12:12:32.466Z,1.93
2023-01-30T12:15:22.936Z,1.88
2023-01-30T12:18:04.895Z,1.99
2023-01-30T12:20:49.508Z,2.07
2023-01-30T12:23:30.809Z,1.95
2023-01-30T12:26:08.707Z,2.16
2023-01-30T12:28:50.447Z,2.33
2023-01-30T12:31:27.472Z,2.39
2023-01-30T12:34:01.107Z,2.29
2023-01-30T12:36:43.814Z,2.31
2023-01-30T12:39:36.528Z,2.31
2023-01-30T12:42:42.653Z,2.24
2023-01-30T12:45:22.846Z,2.13
2023-01-30T12:48:26.591Z,2.13
2023-01-30T12:51:11.505Z,2.12
2023-01-30T12:54:04.496Z,2.13
2023-01-30T12:56:49.360Z,2.19
2023-01-30T12:59:28.836Z,2.18
2023-01-30T13:02:25.458Z,2.09
2023-01-30T13:05:21.365Z,2.17
2023-01-30T13:08:22.472Z,2.05
2023-01-30T13:11:05.115Z,2.06
2023-01-30T13:13:45.105Z,2.08
2023-01-30T13:16:25.636Z,2.15
2023-01-30T13:19:07.432Z,2.20
2023-01-30T13:21:51.224Z,2.61
2023-01-30T13:24:36.189Z,2.68
2023-01-30T13:27:16.215Z,2.64
2023-01-30T13:29:50.048Z,2.70
2023-01-30T13:32:35.726Z,2.65
2023-01-30T13:35:18.094Z,2.76
2023-01-30T13:37:54.396Z,2.73
2023-01-30T13:40:33.005Z,2.69
2023-01-30T13:43:12.936Z,2.72
2023-01-30T13:45:48.923Z,2.74
2023-01-30T13:48:36.021Z,2.63
2023-01-30T13:51:34.412Z,2.65
2023-01-30T13:54:19.575Z,2.67
2023-01-30T13:56:57.759Z,2.65
2023-01-30T13:59:55.082Z,2.66
2023-01-30T14:02:28.062Z,2.66
2023-01-30T14:05:03.896Z,2.63
2023-01-30T14:07:45.295Z,2.60
2023-01-30T14:10:21.700Z,2.55
2023-01-30T14:12:55.792Z,2.62
2023-01-30T14:15:31.808Z,2.51
2023-01-30T14:18:07.946Z,2.59
2023-01-30T14:20:45.144Z,2.58
2023-01-30T14:23:24.158Z,2.55
2023-01-30T14:25:57.858Z,2.63
2023-01-30T14:28:49.294Z,2.70
2023-01-30T14:31:55.658Z,2.66
2023-01-30T14:35:04.451Z,2.68
2023-01-30T14:38:09.805Z,2.70
2023-01-30T14:41:26.160Z,2.75
2023-01-30T14:43:58.865Z,2.70
2023-01-30T14:46:54.736Z,2.61
2023-01-30T14:49:34.077Z,2.53
2023-01-30T14:52:23.641Z,2.54
2023-01-30T14:54:56.606Z,2.59
2023-01-30T14:57:32.997Z,2.44
2023-01-30T15:00:18.654Z,2.45
2023-01-30T15:02:55.535Z,2.41
2023-01-30T15:05:32.608Z,2.44
2023-01-30T15:08:08.961Z,2.47
2023-01-30T15:11:07.125Z,2.41
2023-01-30T15:14:11.866Z,2.54
2023-01-30T15:16:59.704Z,2.57
2023-01-30T15:20:01.912Z,2.62
2023-01-30T15:22:47.826Z,2.60
2023-01-30T15:25:31.857Z,2.61
2023-01-30T15:28:27.385Z,2.68
2023-01-30T15:31:10.264Z,2.59
2023-01-30T15:33:47.927Z,2.66
2023-01-30T15:36:25.419Z,2.59
2023-01-30T15:39:00.216Z,2.58
2023-01-30T15:41:39.874Z,2.55
2023-01-30T15:44:31.588Z,2.52
2023-01-30T15:47:19.665Z,2.57
2023-01-30T15:49:58.220Z,2.44
2023-01-30T15:52:40.057Z,2.53
2023-01-30T15:55:18.909Z,2.45
2023-01-30T15:57:57.087Z,2.48
2023-01-30T16:00:32.930Z,2.41
2023-01-30T16:03:12.822Z,2.44
2023-01-30T16:05:49.384Z,2.44
2023-01-30T16:08:24.702Z,2.43
2023-01-30T16:10:58.169Z,2.42
2023-01-30T16:13:33.250Z,2.44
2023-01-30T16:16:12.589Z,2.44
2023-01-30T16:18:50.369Z,2.41
2023-01-30T16:21:26.574Z,2.45
2023-01-30T16:24:04.265Z,2.44
2023-01-30T16:26:37.900Z,2.43
2023-01-30T16:29:16.464Z,2.37
2023-01-30T16:31:50.711Z,2.28
2023-01-30T16:34:30.886Z,2.36
2023-01-30T16:37:07.698Z,2.28
2023-01-30T16:39:42.728Z,2.27
2023-01-30T16:42:23.641Z,2.36
2023-01-30T16:45:15.989Z,2.38
2023-01-30T16:47:49.070Z,2.23
2023-01-30T16:50:24.186Z,2.22
2023-01-30T16:52:59.336Z,2.20
2023-01-30T16:55:32.480Z,2.24
2023-01-30T16:58:06.866Z,2.17
2023-01-30T17:00:42.652Z,2.19
2023-01-30T17:03:23.708Z,2.18
2023-01-30T17:05:58.390Z,2.22
2023-01-30T17:08:48.090Z,2.24
2023-01-30T17:11:32.936Z,2.10
2023-01-30T17:14:20.329Z,2.20
2023-01-30T17:17:04.337Z,2.24
2023-01-30T17:19:38.156Z,2.28
2023-01-30T17:22:20.581Z,2.20
2023-01-30T17:24:54.937Z,2.30
2023-01-30T17:27:29.602Z,2.23
2023-01-30T17:30:02.482Z,2.26
2023-01-30T17:32:35.322Z,2.30
2023-01-30T17:35:09.071Z,2.32
2023-01-30T17:37:45.285Z,2.36
2023-01-30T17:40:19.893Z,2.32
2023-01-30T17:42:52.951Z,2.35
2023-01-30T17:45:25.900Z,2.36
2023-01-30T17:47:58.797Z,2.39
2023-01-30T17:50:32.465Z,2.40
2023-01-30T17:53:06.838Z,2.38
2023-01-30T17:55:40.185Z,2.35
2023-01-30T17:58:17.182Z,2.38
2023-01-30T18:00:50.183Z,2.40
2023-01-30T18:03:22.943Z,2.38
2023-01-30T18:05:55.735Z,2.36
2023-01-30T18:08:29.914Z,2.42
2023-01-30T18:11:02.768Z,2.43
2023-01-30T18:13:36.489Z,2.50
2023-01-30T18:16:16.953Z,2.54
2023-01-30T18:18:49.801Z,2.60
2023-01-30T18:21:23.130Z,2.66
2023-01-30T18:23:57.323Z,2.60
2023-01-30T18:26:30.985Z,2.62
2023-01-30T18:29:04.048Z,2.53
2023-01-30T18:31:37.082Z,2.55
2023-01-30T18:34:11.977Z,2.64
2023-01-30T18:36:45.039Z,2.72
2023-01-30T18:39:19.618Z,2.65
2023-01-30T18:41:52.468Z,2.68
2023-01-30T18:44:26.273Z,2.62
2023-01-30T18:46:59.315Z,2.65
2023-01-30T18:49:32.076Z,2.79
2023-01-30T18:52:05.356Z,2.75
2023-01-30T18:54:39.407Z,2.73
2023-01-30T18:57:12.213Z,2.66
2023-01-30T18:59:44.976Z,2.67
2023-01-30T19:02:17.868Z,2.65
2023-01-30T19:04:50.675Z,2.68
2023-01-30T19:07:23.496Z,2.74
2023-01-30T19:09:57.648Z,2.70
2023-01-30T19:12:47.836Z,2.75
2023-01-30T19:15:20.805Z,2.83
2023-01-30T19:17:53.697Z,2.79
2023-01-30T19:20:27.058Z,2.71
2023-01-30T19:23:00.011Z,2.70
2023-01-30T19:25:34.539Z,2.76
2023-01-30T19:28:07.421Z,2.77
2023-01-30T19:30:40.444Z,2.73
2023-01-30T19:33:13.411Z,2.74
2023-01-30T19:35:46.168Z,2.67
2023-01-30T19:38:19.038Z,2.63
2023-01-30T19:40:53.166Z,2.62
2023-01-30T19:43:26.039Z,2.63
2023-01-30T19:46:00.426Z,2.58
2023-01-30T19:48:34.010Z,2.52
2023-01-30T19:51:13.496Z,2.53
2023-01-30T19:53:47.927Z,2.45
2023-01-30T19:56:24.929Z,2.53
2023-01-30T19:58:59.446Z,2.56
2023-01-30T20:01:36.983Z,2.59
2023-01-30T20:04:10.142Z,2.60
2023-01-30T20:06:44.382Z,2.67
2023-01-30T20:09:17.851Z,2.66
2023-01-30T20:11:52.067Z,2.61
2023-01-30T20:14:24.950Z,2.61
2023-01-30T20:16:57.734Z,2.65
2023-01-30T20:19:30.681Z,2.60
2023-01-30T20:22:08.083Z,2.60
2023-01-30T20:24:40.979Z,2.61
2023-01-30T20:27:15.196Z,2.55
2023-01-30T20:29:47.993Z,2.60
2023-01-30T20:32:20.911Z,2.60
2023-01-30T20:34:53.685Z,2.65
2023-01-30T20:37:27.817Z,2.61
2023-01-30T20:40:00.590Z,2.62
2023-01-30T20:42:34.785Z,2.50
2023-01-30T20:45:08.910Z,2.54
2023-01-30T20:47:42.093Z,2.46
2023-01-30T20:50:15.103Z,2.54
2023-01-30T20:52:51.436Z,2.54
2023-01-30T20:55:24.358Z,2.44
2023-01-30T20:57:58.559Z,2.40
2023-01-30T21:00:31.352Z,2.47
2023-01-30T21:03:04.332Z,2.41
2023-01-30T21:05:37.373Z,2.47
2023-01-30T21:08:10.289Z,2.50
2023-01-30T21:10:46.725Z,2.60
2023-01-30T21:13:21.442Z,2.59
2023-01-30T21:16:04.466Z,2.65
2023-01-30T21:18:39.539Z,2.64
2023-01-30T21:21:18.831Z,2.58
2023-01-30T21:23:54.374Z,2.50
2023-01-30T21:26:29.243Z,2.58
2023-01-30T21:29:04.883Z,2.59
2023-01-30T21:31:39.351Z,2.59
2023-01-30T21:34:13.018Z,2.53
2023-01-30T21:37:05.950Z,2.55
2023-01-30T21:39:56.037Z,2.53
2023-01-30T21:42:46.174Z,2.45
2023-01-30T21:45:21.826Z,2.44
2023-01-30T21:47:55.142Z,2.32
2023-01-30T21:50:28.523Z,2.36
2023-01-30T21:53:01.812Z,2.30
2023-01-30T21:55:34.832Z,2.34
2023-01-30T21:58:07.689Z,2.23
2023-01-30T22:00:41.866Z,2.13
2023-01-30T22:03:14.871Z,2.16
2023-01-30T22:05:47.726Z,2.10
2023-01-30T22:08:20.747Z,2.17
2023-01-30T22:10:53.957Z,2.12
2023-01-30T22:13:26.928Z,2.13
2023-01-30T22:16:04.243Z,2.09
2023-01-30T22:18:37.602Z,2.17
2023-01-30T22:21:12.857Z,2.16
2023-01-30T22:23:47.338Z,2.12
2023-01-30T22:26:22.538Z,2.09
2023-01-30T22:28:56.609Z,2.12
2023-01-30T22:31:34.626Z,2.11
2023-01-30T22:34:07.706Z,2.11
2023-01-30T22:36:40.695Z,2.17
2023-01-30T22:39:13.471Z,2.18
2023-01-30T22:41:46.230Z,2.12
2023-01-30T22:44:19.066Z,2.17
2023-01-30T22:46:53.336Z,2.27
2023-01-30T22:49:26.155Z,2.13
2023-01-30T22:51:58.961Z,2.04
2023-01-30T22:54:31.746Z,2.02
2023-01-30T22:57:04.657Z,2.03
2023-01-30T22:59:37.781Z,2.04
2023-01-30T23:02:12.376Z,2.05
2023-01-30T23:04:51.880Z,1.99
2023-01-30T23:07:24.629Z,1.99
2023-01-30T23:09:57.413Z,1.92
2023-01-30T23:12:48.584Z,1.96
2023-01-30T23:15:21.582Z,1.93
2023-01-30T23:18:13.572Z,1.97
2023-01-30T23:20:46.440Z,1.96
2023-01-30T23:23:19.212Z,1.99
2023-01-30T23:25:51.976Z,2.11
2023-01-30T23:28:24.728Z,2.06
2023-01-30T23:30:57.567Z,2.01
2023-01-30T23:33:31.658Z,2.09
2023-01-30T23:36:05.413Z,2.14
2023-01-30T23:38:38.991Z,2.14
2023-01-30T23:41:14.262Z,1.98
2023-01-30T23:43:47.923Z,1.99
2023-01-30T23:46:22.962Z,2.09
2023-01-30T23:48:58.997Z,2.02
2023-01-30T23:51:33.914Z,2.01
2023-01-30T23:54:07.221Z,2.01
2023-01-30T23:56:42.507Z,2.09
2023-01-30T23:59:15.305Z,1.95
